createdAt,value
2023-03-24T00:00:59.311Z,48.10
2023-03-24T00:03:33.199Z,77.93
2023-03-24T00:06:08.062Z,73.93
2023-03-24T00:08:43.282Z,80.90
2023-03-24T00:11:17.856Z,90.07
2023-03-24T00:13:50.863Z,93.05
2023-03-24T00:16:24.156Z,59.50
2023-03-24T00:18:57.571Z,45.60
2023-03-24T00:21:30.224Z,52.33
2023-03-24T00:24:04.213Z,56.30
2023-03-24T00:26:38.725Z,58.67
2023-03-24T00:29:12.962Z,56.08
2023-03-24T00:31:45.413Z,54.42
2023-03-24T00:34:21.063Z,27.65
2023-03-24T00:36:53.521Z,28.67
2023-03-24T00:39:26.040Z,27.42
2023-03-24T00:42:01.022Z,22.33
2023-03-24T00:44:33.710Z,28.25
2023-03-24T00:47:06.212Z,26.50
2023-03-24T00:49:42.001Z,10.75
2023-03-24T00:52:17.401Z,16.65
2023-03-24T00:54:57.419Z,16.95
2023-03-24T00:57:34.226Z,12.38
2023-03-24T01:00:12.193Z,19.48
2023-03-24T01:02:45.780Z,18.80
2023-03-24T01:05:20.065Z,28.48
2023-03-24T01:07:52.596Z,22.30
2023-03-24T01:10:26.538Z,24.20
2023-03-24T01:13:00.070Z,27.67
2023-03-24T01:15:35.746Z,31.27
2023-03-24T01:18:09.105Z,57.20
2023-03-24T01:20:45.006Z,70.95
2023-03-24T01:23:21.691Z,55.67
2023-03-24T01:25:54.580Z,48.15
2023-03-24T01:28:27.198Z,25.70
2023-03-24T01:30:59.727Z,29.45
2023-03-24T01:33:32.168Z,26.15
2023-03-24T01:36:06.770Z,32.65
2023-03-24T01:38:39.455Z,25.45
2023-03-24T01:41:11.903Z,19.58
2023-03-24T01:43:44.736Z,8.55
2023-03-24T01:46:19.090Z,7.97
2023-03-24T01:48:53.987Z,10.82
2023-03-24T01:51:30.771Z,6.85
2023-03-24T01:54:06.916Z,7.63
2023-03-24T01:56:43.240Z,5.97
2023-03-24T01:59:21.190Z,6.82
2023-03-24T02:02:23.441Z,24.25
2023-03-24T02:05:04.508Z,28.15
2023-03-24T02:07:51.556Z,40.47
2023-03-24T02:10:24.771Z,35.30
2023-03-24T02:12:57.228Z,32.03
2023-03-24T02:15:32.275Z,26.40
2023-03-24T02:18:17.691Z,23.38
2023-03-24T02:21:21.166Z,32.40
2023-03-24T02:24:22.646Z,10.30
2023-03-24T02:27:02.489Z,7.72
2023-03-24T02:32:43.551Z,13.25
2023-03-24T02:35:41.174Z,8.07
2023-03-24T02:38:53.918Z,10.30
2023-03-24T02:41:33.081Z,12.65
2023-03-24T02:44:14.427Z,9.10
2023-03-24T02:46:54.680Z,20.10
2023-03-24T02:52:08.293Z,20.88
2023-03-24T02:54:48.413Z,21.63
2023-03-24T02:57:29.005Z,23.92
2023-03-24T03:00:41.169Z,19.30
2023-03-24T03:03:18.924Z,11.85
2023-03-24T03:05:57.990Z,12.50
2023-03-24T03:08:33.200Z,7.97
2023-03-24T03:11:09.734Z,9.88
2023-03-24T03:13:48.333Z,9.23
2023-03-24T03:16:24.886Z,9.52
2023-03-24T03:19:00.866Z,8.73
2023-03-24T03:21:38.580Z,13.32
2023-03-24T03:24:15.093Z,14.30
2023-03-24T03:26:48.670Z,15.90
2023-03-24T03:29:25.916Z,15.93
2023-03-24T03:32:06.891Z,9.85
2023-03-24T03:34:45.447Z,11.95
2023-03-24T03:37:27.595Z,6.32
2023-03-24T03:40:04.836Z,7.53
2023-03-24T03:42:38.754Z,9.55
2023-03-24T03:45:13.550Z,8.38
2023-03-24T03:47:46.864Z,8.80
2023-03-24T03:50:19.551Z,9.20
2023-03-24T03:52:52.208Z,6.63
2023-03-24T03:55:24.908Z,8.15
2023-03-24T03:57:57.857Z,9.52
2023-03-24T04:00:37.909Z,8.07
2023-03-24T04:03:52.690Z,9.65
2023-03-24T04:09:23.677Z,10.07
2023-03-24T04:12:21.319Z,11.52
2023-03-24T04:15:34.463Z,11.43
2023-03-24T04:18:46.436Z,11.00
2023-03-24T04:21:47.906Z,12.25
2023-03-24T04:24:39.466Z,9.27
2023-03-24T04:27:26.397Z,8.93
2023-03-24T04:30:09.446Z,11.45
2023-03-24T04:32:47.740Z,14.15
2023-03-24T04:35:31.247Z,8.98
2023-03-24T04:38:29.542Z,11.80
2023-03-24T04:41:25.638Z,14.27
2023-03-24T04:44:10.039Z,11.05
2023-03-24T04:46:57.237Z,20.30
2023-03-24T04:49:29.638Z,36.00
2023-03-24T04:52:03.147Z,39.30
2023-03-24T04:54:39.021Z,34.97
2023-03-24T04:57:12.337Z,34.40
2023-03-24T04:59:47.578Z,33.20
2023-03-24T05:02:21.903Z,29.50
2023-03-24T05:05:10.138Z,31.92
2023-03-24T05:07:48.770Z,27.15
2023-03-24T05:10:22.138Z,24.02
2023-03-24T05:13:02.186Z,24.13
2023-03-24T05:15:53.572Z,20.63
2023-03-24T05:18:34.786Z,18.00
2023-03-24T05:21:07.682Z,17.08
2023-03-24T05:23:41.956Z,11.85
2023-03-24T05:26:14.405Z,23.27
2023-03-24T05:29:04.804Z,10.15
2023-03-24T05:31:37.309Z,12.38
2023-03-24T05:34:15.168Z,12.27
2023-03-24T05:37:16.228Z,9.48
2023-03-24T05:39:53.285Z,10.88
2023-03-24T05:42:55.709Z,14.68
2023-03-24T05:45:31.083Z,13.70
2023-03-24T05:48:05.636Z,14.80
2023-03-24T05:51:05.953Z,13.90
2023-03-24T05:53:38.496Z,13.48
2023-03-24T05:56:27.296Z,12.82
2023-03-24T05:59:11.759Z,12.10
2023-03-24T06:02:13.419Z,15.85
2023-03-24T06:05:03.303Z,9.52
2023-03-24T06:07:35.793Z,6.60
2023-03-24T06:12:54.906Z,10.40
2023-03-24T06:15:30.134Z,12.52
2023-03-24T06:18:14.460Z,11.63
2023-03-24T06:20:49.983Z,11.80
2023-03-24T06:23:33.928Z,10.38
2023-03-24T06:26:18.333Z,10.77
2023-03-24T06:29:03.737Z,12.25
2023-03-24T06:31:39.811Z,13.75
2023-03-24T06:34:12.346Z,29.63
2023-03-24T06:36:45.636Z,12.32
2023-03-24T06:39:18.314Z,7.05
2023-03-24T06:41:50.885Z,7.93
2023-03-24T06:44:24.214Z,6.68
2023-03-24T06:46:56.559Z,6.18
2023-03-24T06:49:28.994Z,6.85
2023-03-24T06:52:01.541Z,6.28
2023-03-24T06:54:34.845Z,5.63
2023-03-24T06:57:07.416Z,7.60
2023-03-24T07:00:01.290Z,7.47
2023-03-24T07:02:38.682Z,10.32
2023-03-24T07:05:11.775Z,9.05
2023-03-24T07:10:44.292Z,7.20
2023-03-24T07:13:16.918Z,8.98
2023-03-24T07:15:50.691Z,6.32
2023-03-24T07:18:23.551Z,19.55
2023-03-24T07:21:03.114Z,8.55
2023-03-24T07:23:35.950Z,10.05
2023-03-24T07:26:22.792Z,10.07
2023-03-24T07:29:03.259Z,15.10
2023-03-24T07:31:49.994Z,15.95
2023-03-24T07:34:22.777Z,17.50
2023-03-24T07:36:55.770Z,17.30
2023-03-24T07:39:28.195Z,17.10
2023-03-24T07:42:01.116Z,18.83
2023-03-24T07:44:44.230Z,16.42
2023-03-24T07:47:18.552Z,14.55
2023-03-24T07:49:52.692Z,14.68
2023-03-24T07:52:25.177Z,13.52
2023-03-24T07:55:00.372Z,11.65
2023-03-24T07:57:51.620Z,13.65
2023-03-24T08:00:24.397Z,8.35
2023-03-24T08:03:13.448Z,8.73
2023-03-24T08:06:09.160Z,7.28
2023-03-24T08:08:48.218Z,8.63
2023-03-24T08:11:20.824Z,12.30
2023-03-24T08:13:53.246Z,7.68
2023-03-24T08:16:25.641Z,11.45
2023-03-24T08:18:58.567Z,23.38
2023-03-24T08:21:30.874Z,10.43
2023-03-24T08:24:03.490Z,7.78
2023-03-24T08:26:35.788Z,5.88
2023-03-24T08:29:08.548Z,5.95
2023-03-24T08:31:41.027Z,5.90
2023-03-24T08:34:14.066Z,5.68
2023-03-24T08:36:46.727Z,6.63
2023-03-24T08:39:19.565Z,5.32
2023-03-24T08:41:54.266Z,7.97
2023-03-24T08:44:27.122Z,7.15
2023-03-24T08:47:00.970Z,6.13
2023-03-24T08:49:34.127Z,5.25
2023-03-24T08:52:07.685Z,5.70
2023-03-24T08:54:40.169Z,5.78
2023-03-24T08:57:12.588Z,7.10
2023-03-24T08:59:46.025Z,15.85
2023-03-24T09:02:18.388Z,12.50
2023-03-24T09:04:53.989Z,11.50
2023-03-24T09:07:26.605Z,12.00
2023-03-24T09:09:58.989Z,9.05
2023-03-24T09:12:31.541Z,10.10
2023-03-24T09:15:06.444Z,10.88
2023-03-24T09:17:38.889Z,12.05
2023-03-24T09:20:15.277Z,11.20
2023-03-24T09:22:48.033Z,8.98
2023-03-24T09:25:20.876Z,8.65
2023-03-24T09:27:53.237Z,8.38
2023-03-24T09:30:26.521Z,6.97
2023-03-24T09:32:59.760Z,6.07
2023-03-24T09:35:32.917Z,6.80
2023-03-24T09:38:05.316Z,8.82
2023-03-24T09:40:41.967Z,7.20
2023-03-24T09:43:25.921Z,9.07
2023-03-24T09:46:01.764Z,10.25
2023-03-24T09:48:40.548Z,12.45
2023-03-24T09:51:21.822Z,11.38
2023-03-24T09:54:00.858Z,9.13
2023-03-24T09:56:36.070Z,10.68
2023-03-24T09:59:16.204Z,8.85
2023-03-24T10:01:49.618Z,9.07
2023-03-24T10:04:26.089Z,11.15
2023-03-24T10:07:05.799Z,9.55
2023-03-24T10:09:38.917Z,9.25
2023-03-24T10:12:24.862Z,11.93
2023-03-24T10:15:09.860Z,11.00
2023-03-24T10:17:51.496Z,10.55
2023-03-24T10:20:31.987Z,8.75
2023-03-24T10:23:16.863Z,8.60
2023-03-24T10:25:54.466Z,12.05
2023-03-24T10:28:32.690Z,7.57
2023-03-24T10:31:10.601Z,11.20
2023-03-24T10:33:45.011Z,12.45
2023-03-24T10:36:20.256Z,9.95
2023-03-24T10:38:53.608Z,10.38
2023-03-24T10:41:28.810Z,10.95
2023-03-24T10:44:01.343Z,9.55
2023-03-24T10:46:34.090Z,8.43
2023-03-24T10:49:10.106Z,9.23
2023-03-24T10:51:47.005Z,8.98
2023-03-24T10:54:22.148Z,11.05
2023-03-24T10:57:04.021Z,10.02
2023-03-24T10:59:38.411Z,8.60
2023-03-24T11:02:18.449Z,8.65
2023-03-24T11:04:55.668Z,9.80
2023-03-24T11:07:32.369Z,7.97
2023-03-24T11:10:14.690Z,9.60
2023-03-24T11:13:01.863Z,9.82
2023-03-24T11:15:36.567Z,8.55
2023-03-24T11:18:15.920Z,11.63
2023-03-24T11:23:28.867Z,10.30
2023-03-24T11:26:09.198Z,8.30
2023-03-24T11:28:45.370Z,9.65
2023-03-24T11:31:29.839Z,10.95
2023-03-24T11:34:08.660Z,8.27
2023-03-24T11:36:48.552Z,10.25
2023-03-24T11:39:23.457Z,7.55
2023-03-24T11:42:14.797Z,11.52
2023-03-24T11:44:50.653Z,7.90
2023-03-24T11:47:28.572Z,9.90
2023-03-24T11:50:14.912Z,6.88
2023-03-24T11:52:52.266Z,8.50
2023-03-24T11:55:36.874Z,6.32
2023-03-24T11:58:16.961Z,7.38
2023-03-24T12:00:55.364Z,5.78
2023-03-24T12:04:09.233Z,5.22
2023-03-24T12:06:55.651Z,8.55
2023-03-24T12:09:35.020Z,7.78
2023-03-24T12:15:27.908Z,5.85
2023-03-24T12:18:16.442Z,7.80
2023-03-24T12:20:58.221Z,5.57
2023-03-24T12:23:42.317Z,6.78
2023-03-24T12:26:21.411Z,6.45
2023-03-24T12:29:25.916Z,5.65
2023-03-24T12:32:26.607Z,4.78
2023-03-24T12:35:31.136Z,6.30
2023-03-24T12:38:24.923Z,8.45
2023-03-24T12:41:21.448Z,8.57
2023-03-24T12:44:12.216Z,4.90
2023-03-24T12:46:54.808Z,5.90
2023-03-24T12:49:55.703Z,7.97
2023-03-24T12:52:58.023Z,4.13
2023-03-24T12:58:19.138Z,3.70
2023-03-24T13:01:03.427Z,4.53
2023-03-24T13:03:40.691Z,7.35
2023-03-24T13:06:19.037Z,6.97
2023-03-24T13:09:03.075Z,4.45
2023-03-24T13:11:43.298Z,5.15
2023-03-24T13:14:22.394Z,5.28
2023-03-24T13:17:01.428Z,3.92
2023-03-24T13:19:36.741Z,5.30
2023-03-24T13:22:16.192Z,3.78
2023-03-24T13:24:48.623Z,9.15
2023-03-24T13:27:54.482Z,5.15
2023-03-24T13:30:35.593Z,5.95
2023-03-24T13:33:14.434Z,3.58
2023-03-24T13:36:15.169Z,4.40
2023-03-24T13:38:52.780Z,4.90
2023-03-24T13:41:26.622Z,4.97
2023-03-24T13:44:02.872Z,5.18
2023-03-24T13:46:37.013Z,4.43
2023-03-24T13:49:13.889Z,5.32
2023-03-24T13:51:46.899Z,4.80
2023-03-24T13:54:22.594Z,4.97
2023-03-24T13:57:01.717Z,3.88
2023-03-24T13:59:41.730Z,4.15
2023-03-24T14:02:22.838Z,3.55
2023-03-24T14:05:06.414Z,4.57
2023-03-24T14:07:44.214Z,4.47
2023-03-24T14:10:41.492Z,4.45
2023-03-24T14:13:36.855Z,3.63
2023-03-24T14:16:42.702Z,5.20
2023-03-24T14:19:23.357Z,4.30
2023-03-24T14:22:09.918Z,3.90
2023-03-24T14:24:44.731Z,4.20
2023-03-24T14:27:33.782Z,3.35
2023-03-24T14:30:16.755Z,4.10
2023-03-24T14:32:52.073Z,4.72
2023-03-24T14:35:31.296Z,5.50
2023-03-24T14:38:05.570Z,4.35
2023-03-24T14:40:39.610Z,5.03
2023-03-24T14:43:24.641Z,5.20
2023-03-24T14:45:59.638Z,4.03
2023-03-24T14:48:38.678Z,3.40
2023-03-24T14:51:35.662Z,3.35
2023-03-24T14:54:15.793Z,5.82
2023-03-24T14:56:52.556Z,3.58
2023-03-24T14:59:40.943Z,6.22
2023-03-24T15:02:34.321Z,5.70
2023-03-24T15:05:21.958Z,6.07
2023-03-24T15:08:02.548Z,7.05
2023-03-24T15:10:40.412Z,7.00
2023-03-24T15:13:31.283Z,5.20
2023-03-24T15:16:07.316Z,3.35
2023-03-24T15:18:57.755Z,3.50
2023-03-24T15:21:35.532Z,4.35
2023-03-24T15:24:26.746Z,4.15
2023-03-24T15:27:22.616Z,3.72
2023-03-24T15:29:58.253Z,3.25
2023-03-24T15:32:38.125Z,3.72
2023-03-24T15:35:13.966Z,3.90
2023-03-24T15:37:51.768Z,3.28
2023-03-24T15:40:40.459Z,4.38
2023-03-24T15:43:20.040Z,7.03
2023-03-24T15:46:04.702Z,4.15
2023-03-24T15:48:46.850Z,4.35
2023-03-24T15:51:19.456Z,4.55
2023-03-24T15:53:57.321Z,7.95
2023-03-24T15:56:31.290Z,7.07
2023-03-24T15:59:13.298Z,8.15
2023-03-24T16:01:49.657Z,4.45
2023-03-24T16:04:22.865Z,6.60
2023-03-24T16:06:57.322Z,5.30
2023-03-24T16:09:38.259Z,6.55
2023-03-24T16:12:11.318Z,5.32
2023-03-24T16:14:43.897Z,5.57
2023-03-24T16:17:16.233Z,6.72
2023-03-24T16:19:49.211Z,9.48
2023-03-24T16:22:21.608Z,6.70
2023-03-24T16:24:53.916Z,10.13
2023-03-24T16:27:26.341Z,7.43
2023-03-24T16:29:58.700Z,6.60
2023-03-24T16:32:31.616Z,9.57
2023-03-24T16:35:05.579Z,16.30
2023-03-24T16:37:37.965Z,20.17
2023-03-24T16:40:20.950Z,22.02
2023-03-24T16:42:53.284Z,17.55
2023-03-24T16:45:25.598Z,27.35
2023-03-24T16:47:58.064Z,18.75
2023-03-24T16:50:35.865Z,17.45
2023-03-24T16:53:08.692Z,9.50
2023-03-24T16:55:41.669Z,13.88
2023-03-24T16:58:16.459Z,14.80
2023-03-24T17:00:49.205Z,7.68
2023-03-24T17:03:23.785Z,5.25
2023-03-24T17:05:57.358Z,14.85
2023-03-24T17:08:29.970Z,27.67
2023-03-24T17:11:02.441Z,66.68
2023-03-24T17:13:34.952Z,34.22
2023-03-24T17:16:09.716Z,18.60
2023-03-24T17:18:42.082Z,21.73
2023-03-24T17:21:19.252Z,16.80
2023-03-24T17:23:54.133Z,21.85
2023-03-24T17:26:26.555Z,49.47
2023-03-24T17:28:58.955Z,33.88
2023-03-24T17:31:31.334Z,38.25
2023-03-24T17:34:20.684Z,38.40
2023-03-24T17:36:54.958Z,38.70
2023-03-24T17:39:27.330Z,29.98
2023-03-24T17:42:00.975Z,26.70
2023-03-24T17:44:33.490Z,16.58
2023-03-24T17:47:06.440Z,11.05
2023-03-24T17:49:38.863Z,8.50
2023-03-24T17:52:11.962Z,26.33
2023-03-24T17:54:45.909Z,30.52
2023-03-24T17:57:18.510Z,28.92
2023-03-24T17:59:52.887Z,27.33
2023-03-24T18:02:25.968Z,39.78
2023-03-24T18:04:58.487Z,36.28
2023-03-24T18:07:32.007Z,48.42
2023-03-24T18:10:06.021Z,37.95
2023-03-24T18:12:38.395Z,47.05
2023-03-24T18:15:11.171Z,45.47
2023-03-24T18:17:44.049Z,73.88
2023-03-24T18:20:16.868Z,55.85
2023-03-24T18:22:51.491Z,48.50
2023-03-24T18:25:23.793Z,41.47
2023-03-24T18:27:56.367Z,53.67
2023-03-24T18:30:30.117Z,51.20
2023-03-24T18:33:03.018Z,42.28
2023-03-24T18:35:35.437Z,35.13
2023-03-24T18:38:08.527Z,33.28
2023-03-24T18:40:40.899Z,34.75
2023-03-24T18:43:13.348Z,25.63
2023-03-24T18:45:45.766Z,28.83
2023-03-24T18:48:18.283Z,25.88
2023-03-24T18:50:51.254Z,29.83
2023-03-24T18:53:24.535Z,35.80
2023-03-24T18:55:56.992Z,24.73
2023-03-24T18:58:29.874Z,28.33
2023-03-24T19:01:06.082Z,25.50
2023-03-24T19:03:40.189Z,29.42
2023-03-24T19:06:14.139Z,35.03
2023-03-24T19:08:50.962Z,26.25
2023-03-24T19:11:23.571Z,36.55
2023-03-24T19:13:56.611Z,39.25
2023-03-24T19:16:29.040Z,39.88
2023-03-24T19:19:02.043Z,30.42
2023-03-24T19:21:34.553Z,18.80
2023-03-24T19:24:08.227Z,25.73
2023-03-24T19:26:40.547Z,31.10
2023-03-24T19:29:12.904Z,30.60
2023-03-24T19:31:45.462Z,34.67
2023-03-24T19:34:17.853Z,28.23
2023-03-24T19:36:51.265Z,22.42
2023-03-24T19:39:25.476Z,30.65
2023-03-24T19:41:59.113Z,34.65
2023-03-24T19:44:31.529Z,22.95
2023-03-24T19:47:04.287Z,27.88
2023-03-24T19:49:36.914Z,57.75
2023-03-24T19:52:09.307Z,74.57
2023-03-24T19:54:42.565Z,46.70
2023-03-24T19:57:15.330Z,62.97
2023-03-24T19:59:47.707Z,58.13
2023-03-24T20:02:20.618Z,51.25
2023-03-24T20:04:54.677Z,42.53
2023-03-24T20:07:26.958Z,45.58
2023-03-24T20:10:00.218Z,49.25
2023-03-24T20:12:33.067Z,54.08
2023-03-24T20:15:06.141Z,44.97
2023-03-24T20:17:39.896Z,42.25
2023-03-24T20:20:13.427Z,48.38
2023-03-24T20:22:47.908Z,44.25
2023-03-24T20:25:21.684Z,34.53
2023-03-24T20:27:53.973Z,39.13
2023-03-24T20:30:27.464Z,49.28
2023-03-24T20:33:01.025Z,48.40
2023-03-24T20:35:35.184Z,46.42
2023-03-24T20:38:08.806Z,49.28
2023-03-24T20:40:41.774Z,40.50
2023-03-24T20:43:14.106Z,39.70
2023-03-24T20:45:46.587Z,33.80
2023-03-24T20:48:18.894Z,33.15
2023-03-24T20:50:52.036Z,25.90
2023-03-24T20:53:25.359Z,32.50
2023-03-24T20:56:00.139Z,37.40
2023-03-24T20:58:33.667Z,39.15
2023-03-24T21:01:09.214Z,36.40
2023-03-24T21:03:42.134Z,36.20
2023-03-24T21:06:15.354Z,41.50
2023-03-24T21:08:47.655Z,43.92
2023-03-24T21:11:23.599Z,52.63
2023-03-24T21:13:56.028Z,41.40
2023-03-24T21:16:28.816Z,62.22
2023-03-24T21:19:01.343Z,77.15
2023-03-24T21:21:33.731Z,73.20
2023-03-24T21:24:06.599Z,67.13
2023-03-24T21:26:39.679Z,77.20
2023-03-24T21:29:12.364Z,74.63
2023-03-24T21:31:44.868Z,57.97
2023-03-24T21:34:17.248Z,71.75
2023-03-24T21:36:52.929Z,62.95
2023-03-24T21:39:25.669Z,60.50
2023-03-24T21:42:02.218Z,61.70
2023-03-24T21:44:34.578Z,50.58
2023-03-24T21:47:07.185Z,46.35
2023-03-24T21:49:39.460Z,58.35
2023-03-24T21:52:11.805Z,37.75
2023-03-24T21:54:44.240Z,37.03
2023-03-24T21:57:17.226Z,41.28
2023-03-24T21:59:49.680Z,48.42
2023-03-24T22:02:24.701Z,43.78
2023-03-24T22:05:01.201Z,34.83
2023-03-24T22:07:36.949Z,37.97
2023-03-24T22:10:12.723Z,44.83
2023-03-24T22:12:45.895Z,44.60
2023-03-24T22:15:18.766Z,30.50
2023-03-24T22:17:51.179Z,30.55
2023-03-24T22:20:23.923Z,31.23
2023-03-24T22:22:56.187Z,22.08
2023-03-24T22:25:28.861Z,21.58
2023-03-24T22:28:01.888Z,20.50
2023-03-24T22:30:34.198Z,31.63
2023-03-24T22:33:06.893Z,19.05
2023-03-24T22:35:39.401Z,18.35
2023-03-24T22:38:14.319Z,12.60
2023-03-24T22:40:46.624Z,10.23
2023-03-24T22:43:19.701Z,23.38
2023-03-24T22:45:52.396Z,5.90
2023-03-24T22:48:25.345Z,7.53
2023-03-24T22:50:57.720Z,6.55
2023-03-24T22:53:30.280Z,8.00
2023-03-24T22:56:02.949Z,8.55
2023-03-24T22:58:36.029Z,12.93
2023-03-24T23:01:09.242Z,7.30
2023-03-24T23:03:41.612Z,48.90
2023-03-24T23:06:15.227Z,15.55
2023-03-24T23:08:48.788Z,37.60
2023-03-24T23:11:27.986Z,43.50
2023-03-24T23:14:04.120Z,51.53
2023-03-24T23:16:37.931Z,13.88
2023-03-24T23:19:11.503Z,44.88
2023-03-24T23:21:44.223Z,26.83
2023-03-24T23:24:16.704Z,6.22
2023-03-24T23:26:49.047Z,14.30
2023-03-24T23:29:21.986Z,37.47
2023-03-24T23:31:54.350Z,44.25
2023-03-24T23:34:26.742Z,12.20
2023-03-24T23:37:02.483Z,12.77
2023-03-24T23:39:36.056Z,7.97
2023-03-24T23:42:08.362Z,5.47
2023-03-24T23:44:41.303Z,7.60
2023-03-24T23:47:13.568Z,10.32
2023-03-24T23:49:45.826Z,5.32
2023-03-24T23:52:18.101Z,11.95
2023-03-24T23:54:50.837Z,11.55
2023-03-24T23:57:23.153Z,7.95
2023-03-24T23:59:56.341Z,5.90
